| Ora | Descriere | Temp | Se simte | Precipitatii | Umiditate | Vant |
|---|---|---|---|---|---|---|
| 00:00 | Senin | 12.1° | 10.5° | 0% | 72% | S 15.8 KM/H |
| 01:00 | Senin | 11.8° | 10.1° | 0% | 74% | SSE 15.5 KM/H |
| 02:00 | Senin | 11.7° | 10.2° | 0% | 74% | SSE 13.7 KM/H |
| 03:00 | Senin | 11.7° | 10.3° | 0% | 73% | SSE 13 KM/H |
| 04:00 | Partial innorat | 11° | 10.7° | 0% | 94% | SSE 10.4 KM/H |
| 05:00 | 12° | 11.1° | 0% | 72% | SSE 9.7 KM/H | |
| 06:00 | 12.3° | 11.4° | 0% | 72% | SSE 10.1 KM/H | |
| 07:00 | Acoperit de nori | 12.8° | 12° | 0% | 72% | SSE 10.4 KM/H |
| 08:00 | Acoperit de nori | 14.3° | 13.3° | 0% | 68% | S 14 KM/H |
| 09:00 | Innorat | 14.5° | 13.4° | 0% | 68% | S 15.5 KM/H |
| 10:00 | Acoperit de nori | 14.2° | 13.2° | 0% | 72% | S 14 KM/H |
| 11:00 | Innorat | 15.3° | 15.3° | 0% | 70% | S 13 KM/H |
| 12:00 | 20.1° | 20.1° | 0% | 58% | SSW 14.4 KM/H | |
| 13:00 | 19.9° | 19.9° | 0% | 58% | SSW 18.4 KM/H | |
| 14:00 | 17.4° | 17.5° | 0% | 66% | S 14 KM/H | |
| 15:00 | 21.2° | 21.2° | 0% | 54% | S 13 KM/H | |
| 16:00 | Senin | 22.7° | 24.6° | 0% | 50% | S 11.5 KM/H |
| 17:00 | Senin | 23.5° | 24.8° | 0% | 47% | S 12.2 KM/H |
| 18:00 | Senin | 22.8° | 24.6° | 0% | 49% | SSE 16.2 KM/H |
| 19:00 | Senin | 20.8° | 20.8° | 0% | 57% | SSE 16.6 KM/H |
| 20:00 | Senin | 18.4° | 18.4° | 0% | 66% | SE 14.8 KM/H |
| 21:00 | Senin | 16.5° | 16.5° | 0% | 70% | SE 13 KM/H |
| 22:00 | Senin | 15.7° | 15.7° | 0% | 70% | SE 10.8 KM/H |
| 23:00 | Senin | 15.2° | 15.2° | 0% | 69% | SE 7.6 KM/H |